createdAt,value
2023-02-17T00:01:34.096Z,10.62
2023-02-17T00:04:02.487Z,10.61
2023-02-17T00:06:32.345Z,10.67
2023-02-17T00:09:01.804Z,10.49
2023-02-17T00:11:30.523Z,10.50
2023-02-17T00:14:01.445Z,10.46
2023-02-17T00:16:30.027Z,10.54
2023-02-17T00:19:02.027Z,10.53
2023-02-17T00:21:32.214Z,10.40
2023-02-17T00:24:00.996Z,10.36
2023-02-17T00:26:29.205Z,10.34
2023-02-17T00:28:59.330Z,10.46
2023-02-17T00:31:27.463Z,10.31
2023-02-17T00:33:56.496Z,10.17
2023-02-17T00:36:26.724Z,10.24
2023-02-17T00:38:57.503Z,10.17
2023-02-17T00:41:29.282Z,10.34
2023-02-17T00:43:57.894Z,10.29
2023-02-17T00:46:26.964Z,10.31
2023-02-17T00:48:55.124Z,10.29
2023-02-17T00:51:23.536Z,10.41
2023-02-17T00:53:52.221Z,10.36
2023-02-17T00:56:20.145Z,10.25
2023-02-17T00:58:48.036Z,10.32
2023-02-17T01:01:16.020Z,10.31
2023-02-17T01:03:44.005Z,10.37
2023-02-17T01:06:26.852Z,10.44
2023-02-17T01:08:55.385Z,10.33
2023-02-17T01:11:31.000Z,10.29
2023-02-17T01:14:01.239Z,10.28
2023-02-17T01:16:35.310Z,10.38
2023-02-17T01:19:08.255Z,10.34
2023-02-17T01:21:36.828Z,10.38
2023-02-17T01:24:08.195Z,10.47
2023-02-17T01:26:37.410Z,10.42
2023-02-17T01:29:07.910Z,10.38
2023-02-17T01:31:36.366Z,10.42
2023-02-17T01:34:05.238Z,10.44
2023-02-17T01:36:33.622Z,10.43
2023-02-17T01:39:01.628Z,10.35
2023-02-17T01:41:30.005Z,10.32
2023-02-17T01:44:26.301Z,10.34
2023-02-17T01:46:56.262Z,10.40
2023-02-17T01:49:41.650Z,10.53
2023-02-17T01:52:24.630Z,10.50
2023-02-17T01:55:02.759Z,10.52
2023-02-17T01:57:37.851Z,10.51
2023-02-17T02:00:10.218Z,10.51
2023-02-17T02:02:40.052Z,10.61
2023-02-17T02:05:09.771Z,10.52
2023-02-17T02:07:44.007Z,10.43
2023-02-17T02:10:14.207Z,10.33
2023-02-17T02:12:43.217Z,10.33
2023-02-17T02:15:18.650Z,10.24
2023-02-17T02:18:31.637Z,10.11
2023-02-17T02:21:32.326Z,10.14
2023-02-17T02:24:24.574Z,10.17
2023-02-17T02:27:40.835Z,10.09
2023-02-17T02:30:42.547Z,10.22
2023-02-17T02:33:43.338Z,10.17
2023-02-17T02:36:37.594Z,10.07
2023-02-17T02:39:18.422Z,9.95
2023-02-17T02:42:03.877Z,10.18
2023-02-17T02:44:31.821Z,10.13
2023-02-17T02:47:39.700Z,10.19
2023-02-17T02:50:09.705Z,10.15
2023-02-17T02:53:09.409Z,10.13
2023-02-17T02:56:20.313Z,9.99
2023-02-17T02:59:26.199Z,9.91
2023-02-17T03:02:29.569Z,10.01
2023-02-17T03:05:30.185Z,9.95
2023-02-17T03:08:22.021Z,9.99
2023-02-17T03:10:54.991Z,9.97
2023-02-17T03:13:23.091Z,9.93
2023-02-17T03:15:51.170Z,9.87
2023-02-17T03:18:19.473Z,9.95
2023-02-17T03:20:57.784Z,9.93
2023-02-17T03:23:25.891Z,9.99
2023-02-17T03:25:53.870Z,9.90
2023-02-17T03:28:21.868Z,9.91
2023-02-17T03:30:49.747Z,9.98
2023-02-17T03:33:17.716Z,10.02
2023-02-17T03:35:45.639Z,10.01
2023-02-17T03:38:14.167Z,9.92
2023-02-17T03:40:42.108Z,10.07
2023-02-17T03:43:09.994Z,9.88
2023-02-17T03:45:38.182Z,9.98
2023-02-17T03:48:06.240Z,9.81
2023-02-17T03:50:34.163Z,9.83
2023-02-17T03:53:02.065Z,10.06
2023-02-17T03:55:30.576Z,9.96
2023-02-17T03:57:58.482Z,10.00
2023-02-17T04:00:26.387Z,10.11
2023-02-17T04:02:54.370Z,10.19
2023-02-17T04:05:22.582Z,10.08
2023-02-17T04:07:52.214Z,10.14
2023-02-17T04:10:20.215Z,9.99
2023-02-17T04:12:48.170Z,9.94
2023-02-17T04:15:16.044Z,9.96
2023-02-17T04:17:43.967Z,10.02
2023-02-17T04:20:12.642Z,10.12
2023-02-17T04:22:40.567Z,10.07
2023-02-17T04:25:08.601Z,10.10
2023-02-17T04:27:36.467Z,9.97
2023-02-17T04:30:07.039Z,10.07
2023-02-17T04:32:34.979Z,10.00
2023-02-17T04:35:03.133Z,10.05
2023-02-17T04:37:31.013Z,10.14
2023-02-17T04:39:58.989Z,9.91
2023-02-17T04:42:26.891Z,9.94
2023-02-17T04:44:54.781Z,9.95
2023-02-17T04:47:22.914Z,9.93
2023-02-17T04:49:50.760Z,9.97
2023-02-17T04:52:18.642Z,10.02
2023-02-17T04:54:49.112Z,10.04
2023-02-17T04:57:17.366Z,10.18
2023-02-17T04:59:45.273Z,10.14
2023-02-17T05:02:13.173Z,10.16
2023-02-17T05:04:42.687Z,10.16
2023-02-17T05:07:14.444Z,10.16
2023-02-17T05:09:45.651Z,10.00
2023-02-17T05:12:13.817Z,10.05
2023-02-17T05:14:41.717Z,10.14
2023-02-17T05:17:09.604Z,10.13
2023-02-17T05:19:37.635Z,10.16
2023-02-17T05:22:08.572Z,10.21
2023-02-17T05:24:39.062Z,10.21
2023-02-17T05:27:07.111Z,10.26
2023-02-17T05:29:35.497Z,10.24
2023-02-17T05:32:03.949Z,10.29
2023-02-17T05:34:33.541Z,10.43
2023-02-17T05:37:01.520Z,10.37
2023-02-17T05:39:29.928Z,10.21
2023-02-17T05:41:57.787Z,10.26
2023-02-17T05:44:25.727Z,10.30
2023-02-17T05:46:53.624Z,10.47
2023-02-17T05:49:21.552Z,10.47
2023-02-17T05:51:49.458Z,10.49
2023-02-17T05:54:19.822Z,10.51
2023-02-17T05:56:47.861Z,10.33
2023-02-17T05:59:15.940Z,10.30
2023-02-17T06:01:43.850Z,10.19
2023-02-17T06:04:11.802Z,10.36
2023-02-17T06:06:39.650Z,10.33
2023-02-17T06:09:07.538Z,10.43
2023-02-17T06:11:35.574Z,10.16
2023-02-17T06:14:03.991Z,10.31
2023-02-17T06:16:31.995Z,10.19
2023-02-17T06:19:02.127Z,10.24
2023-02-17T06:21:30.072Z,10.40
2023-02-17T06:23:58.362Z,10.33
2023-02-17T06:26:26.446Z,10.56
2023-02-17T06:28:54.313Z,10.46
2023-02-17T06:31:22.504Z,10.54
2023-02-17T06:33:52.826Z,10.41
2023-02-17T06:36:20.746Z,10.55
2023-02-17T06:38:48.603Z,10.40
2023-02-17T06:41:16.478Z,10.43
2023-02-17T06:43:44.282Z,10.41
2023-02-17T06:46:12.619Z,10.43
2023-02-17T06:48:40.561Z,10.46
2023-02-17T06:51:08.415Z,10.63
2023-02-17T06:53:36.303Z,10.59
2023-02-17T06:56:04.920Z,10.47
2023-02-17T06:58:35.443Z,10.50
2023-02-17T07:01:04.664Z,10.71
2023-02-17T07:03:33.070Z,10.59
2023-02-17T07:06:01.314Z,10.69
2023-02-17T07:08:29.300Z,10.71
2023-02-17T07:10:59.397Z,10.82
2023-02-17T07:13:27.537Z,10.72
2023-02-17T07:15:55.373Z,10.71
2023-02-17T07:18:23.246Z,10.74
2023-02-17T07:20:51.132Z,10.70
2023-02-17T07:23:19.568Z,10.80
2023-02-17T07:25:48.947Z,10.57
2023-02-17T07:28:17.415Z,10.86
2023-02-17T07:30:45.734Z,11.01
2023-02-17T07:33:13.618Z,10.94
2023-02-17T07:35:46.234Z,11.04
2023-02-17T07:38:14.466Z,10.91
2023-02-17T07:40:42.547Z,11.01
2023-02-17T07:43:11.677Z,11.03
2023-02-17T07:45:40.056Z,11.06
2023-02-17T07:48:07.936Z,10.97
2023-02-17T07:50:37.296Z,11.16
2023-02-17T07:53:05.174Z,11.17
2023-02-17T07:55:33.483Z,10.43
2023-02-17T07:58:01.426Z,10.39
2023-02-17T08:00:29.333Z,10.47
2023-02-17T08:02:57.286Z,10.37
2023-02-17T08:05:25.377Z,10.26
2023-02-17T08:08:13.259Z,10.38
2023-02-17T08:11:00.246Z,10.50
2023-02-17T08:13:28.771Z,10.53
2023-02-17T08:15:56.925Z,10.45
2023-02-17T08:18:24.889Z,10.48
2023-02-17T08:20:52.967Z,10.60
2023-02-17T08:23:21.671Z,10.64
2023-02-17T08:25:49.915Z,10.64
2023-02-17T08:28:17.873Z,10.73
2023-02-17T08:30:45.772Z,10.64
2023-02-17T08:33:17.821Z,10.76
2023-02-17T08:35:47.372Z,10.66
2023-02-17T08:38:16.214Z,10.70
2023-02-17T08:40:44.076Z,10.54
2023-02-17T08:43:12.520Z,10.68
2023-02-17T08:45:40.775Z,10.72
2023-02-17T08:48:09.813Z,10.67
2023-02-17T08:50:37.823Z,10.74
2023-02-17T08:53:05.964Z,10.73
2023-02-17T08:55:48.613Z,10.84
2023-02-17T08:58:17.240Z,10.74
2023-02-17T09:00:45.125Z,10.77
2023-02-17T09:03:13.212Z,10.80
2023-02-17T09:05:41.576Z,10.85
2023-02-17T09:08:10.934Z,10.83
2023-02-17T09:10:39.931Z,10.90
2023-02-17T09:13:07.950Z,10.74
2023-02-17T09:15:35.870Z,10.86
2023-02-17T09:18:04.033Z,10.95
2023-02-17T09:20:32.143Z,10.67
2023-02-17T09:23:00.058Z,10.99
2023-02-17T09:25:29.429Z,10.87
2023-02-17T09:27:59.751Z,11.03
2023-02-17T09:30:28.058Z,11.06
2023-02-17T09:32:56.466Z,11.04
2023-02-17T09:35:25.471Z,11.06
2023-02-17T09:37:53.713Z,11.23
2023-02-17T09:40:49.741Z,11.16
2023-02-17T09:43:31.172Z,11.09
2023-02-17T09:46:15.307Z,11.18
2023-02-17T09:48:48.223Z,11.21
2023-02-17T09:51:41.935Z,11.20
2023-02-17T09:54:48.078Z,11.20
2023-02-17T09:57:21.998Z,11.36
2023-02-17T10:00:15.988Z,11.12
2023-02-17T10:03:06.372Z,11.19
2023-02-17T10:05:46.404Z,11.25
2023-02-17T10:08:28.633Z,11.26
2023-02-17T10:11:04.507Z,11.29
2023-02-17T10:13:39.553Z,11.32
2023-02-17T10:16:20.237Z,11.25
2023-02-17T10:19:15.505Z,11.38
2023-02-17T10:22:02.328Z,11.20
2023-02-17T10:24:36.534Z,11.30
2023-02-17T10:27:41.627Z,11.22
2023-02-17T10:30:47.358Z,11.21
2023-02-17T10:33:46.754Z,11.17
2023-02-17T10:37:01.395Z,11.16
2023-02-17T10:39:54.443Z,11.28
2023-02-17T10:42:42.184Z,11.20
2023-02-17T10:45:41.029Z,11.10
2023-02-17T10:48:17.956Z,11.20
2023-02-17T10:50:48.131Z,11.29
2023-02-17T10:53:30.176Z,11.16
2023-02-17T10:56:19.680Z,11.13
2023-02-17T10:59:00.581Z,11.32
2023-02-17T11:01:29.493Z,11.51
2023-02-17T11:04:13.613Z,11.26
2023-02-17T11:06:51.767Z,11.12
2023-02-17T11:09:32.671Z,11.07
2023-02-17T11:12:12.241Z,11.37
2023-02-17T11:14:48.690Z,11.46
2023-02-17T11:17:36.741Z,11.30
2023-02-17T11:20:34.515Z,11.42
2023-02-17T11:23:28.729Z,11.34
2023-02-17T11:26:18.662Z,11.51
2023-02-17T11:28:46.518Z,11.64
2023-02-17T11:31:28.447Z,11.66
2023-02-17T11:33:57.456Z,11.70
2023-02-17T11:36:32.301Z,11.73
2023-02-17T11:39:13.622Z,11.83
2023-02-17T11:41:41.800Z,11.79
2023-02-17T11:44:12.470Z,11.84
2023-02-17T11:47:47.049Z,11.89
2023-02-17T11:50:42.259Z,11.94
2023-02-17T11:54:10.293Z,12.06
2023-02-17T11:56:43.865Z,12.01
2023-02-17T11:59:49.709Z,11.67
2023-02-17T12:03:01.866Z,11.94
2023-02-17T12:06:06.866Z,12.08
2023-02-17T12:09:44.382Z,11.90
2023-02-17T12:13:15.905Z,11.92
2023-02-17T12:16:10.967Z,11.95
2023-02-17T12:19:02.949Z,12.24
2023-02-17T12:22:01.406Z,12.32
2023-02-17T12:25:14.794Z,12.11
2023-02-17T12:28:07.345Z,12.26
2023-02-17T12:31:26.508Z,12.39
2023-02-17T12:34:30.310Z,12.41
2023-02-17T12:37:00.463Z,12.45
2023-02-17T12:39:53.095Z,12.43
2023-02-17T12:42:55.230Z,12.34
2023-02-17T12:45:40.481Z,12.30
2023-02-17T12:48:41.058Z,12.46
2023-02-17T12:51:38.108Z,12.53
2023-02-17T12:54:43.529Z,12.71
2023-02-17T12:57:22.550Z,12.62
2023-02-17T12:59:53.720Z,12.58
2023-02-17T13:02:26.062Z,12.76
2023-02-17T13:05:00.038Z,12.65
2023-02-17T13:07:59.455Z,12.81
2023-02-17T13:10:27.215Z,12.90
2023-02-17T13:13:31.928Z,12.80
2023-02-17T13:16:14.755Z,13.02
2023-02-17T13:18:50.679Z,12.99
2023-02-17T13:21:28.721Z,12.97
2023-02-17T13:24:37.069Z,12.97
2023-02-17T13:27:39.641Z,13.06
2023-02-17T13:30:18.368Z,13.15
2023-02-17T13:32:46.407Z,13.19
2023-02-17T13:35:14.116Z,13.08
2023-02-17T13:37:46.408Z,13.27
2023-02-17T13:40:18.217Z,13.18
2023-02-17T13:43:17.916Z,13.23
2023-02-17T13:49:07.103Z,13.25
2023-02-17T13:51:35.398Z,13.34
2023-02-17T13:54:12.362Z,13.21
2023-02-17T13:56:42.660Z,13.32
2023-02-17T13:59:24.760Z,13.36
2023-02-17T14:01:54.856Z,13.34
2023-02-17T14:04:32.458Z,13.42
2023-02-17T14:07:05.043Z,13.41
2023-02-17T14:09:35.524Z,13.36
2023-02-17T14:12:23.484Z,13.32
2023-02-17T14:14:51.536Z,13.23
2023-02-17T14:17:32.793Z,13.23
2023-02-17T14:20:01.037Z,13.17
2023-02-17T14:22:34.555Z,13.17
2023-02-17T14:25:11.399Z,13.31
2023-02-17T14:27:48.516Z,13.21
2023-02-17T14:30:40.075Z,13.21
2023-02-17T14:33:16.721Z,13.23
2023-02-17T14:36:04.292Z,13.06
2023-02-17T14:38:37.515Z,13.25
2023-02-17T14:41:10.803Z,13.08
2023-02-17T14:43:41.992Z,13.23
2023-02-17T14:46:10.521Z,13.27
2023-02-17T14:48:41.260Z,13.12
2023-02-17T14:51:23.079Z,13.12
2023-02-17T14:53:52.393Z,12.93
2023-02-17T14:56:38.285Z,12.87
2023-02-17T14:59:06.187Z,12.87
2023-02-17T15:01:34.639Z,12.93
2023-02-17T15:04:02.903Z,12.97
2023-02-17T15:06:56.301Z,12.97
2023-02-17T15:09:31.815Z,12.97
2023-02-17T15:12:00.357Z,12.73
2023-02-17T15:14:28.277Z,12.74
2023-02-17T15:16:56.329Z,12.96
2023-02-17T15:19:24.725Z,12.94
2023-02-17T15:21:53.051Z,12.82
2023-02-17T15:24:31.146Z,12.70
2023-02-17T15:27:05.796Z,12.95
2023-02-17T15:29:33.810Z,12.62
2023-02-17T15:32:04.989Z,12.75
2023-02-17T15:34:34.928Z,12.85
2023-02-17T15:37:03.007Z,12.85
2023-02-17T15:39:30.952Z,12.67
2023-02-17T15:42:07.432Z,12.69
2023-02-17T15:44:47.675Z,12.82
2023-02-17T15:47:19.932Z,12.79
2023-02-17T15:49:48.106Z,12.77
2023-02-17T15:52:16.099Z,12.76
2023-02-17T15:54:44.612Z,12.84
2023-02-17T15:57:25.405Z,12.84
2023-02-17T15:59:57.525Z,12.79
2023-02-17T16:02:26.305Z,12.87
2023-02-17T16:04:56.308Z,12.89
2023-02-17T16:07:24.145Z,12.86
2023-02-17T16:09:52.058Z,12.84
2023-02-17T16:12:27.318Z,12.88
2023-02-17T16:14:57.104Z,12.88
2023-02-17T16:17:26.292Z,12.99
2023-02-17T16:19:54.369Z,13.02
2023-02-17T16:22:22.443Z,12.88
2023-02-17T16:24:50.381Z,12.93
2023-02-17T16:27:18.806Z,12.90
2023-02-17T16:29:46.803Z,12.95
2023-02-17T16:32:17.272Z,12.98
2023-02-17T16:34:45.290Z,12.44
2023-02-17T16:37:18.228Z,12.80
2023-02-17T16:39:46.739Z,12.77
2023-02-17T16:42:15.620Z,12.54
2023-02-17T16:44:44.329Z,12.65
2023-02-17T16:47:22.526Z,12.82
2023-02-17T16:49:51.912Z,12.96
2023-02-17T16:52:28.635Z,12.80
2023-02-17T16:54:56.514Z,12.98
2023-02-17T16:57:24.803Z,12.88
2023-02-17T16:59:52.745Z,12.83
2023-02-17T17:02:21.920Z,12.62
2023-02-17T17:04:50.270Z,12.81
2023-02-17T17:07:18.293Z,12.50
2023-02-17T17:10:06.921Z,12.68
2023-02-17T17:12:34.566Z,12.83
2023-02-17T17:15:03.169Z,12.79
2023-02-17T17:17:36.445Z,12.77
2023-02-17T17:20:08.694Z,12.88
2023-02-17T17:22:36.625Z,12.82
2023-02-17T17:25:04.667Z,12.90
2023-02-17T17:27:32.593Z,12.86
2023-02-17T17:30:00.549Z,12.88
2023-02-17T17:32:28.641Z,13.02
2023-02-17T17:34:56.480Z,13.03
2023-02-17T17:37:24.993Z,13.01
2023-02-17T17:39:52.912Z,12.89
2023-02-17T17:42:20.825Z,12.81
2023-02-17T17:44:48.902Z,12.71
2023-02-17T17:47:29.500Z,12.71
2023-02-17T17:49:58.383Z,12.80
2023-02-17T17:52:26.507Z,12.55
2023-02-17T17:54:54.475Z,12.74
2023-02-17T17:57:22.522Z,12.54
2023-02-17T17:59:51.049Z,11.08
2023-02-17T18:02:19.120Z,10.41
2023-02-17T18:04:47.207Z,10.67
2023-02-17T18:07:15.527Z,10.82
2023-02-17T18:09:43.665Z,10.83
2023-02-17T18:12:18.145Z,10.88
2023-02-17T18:14:53.274Z,11.05
2023-02-17T18:17:22.631Z,11.10
2023-02-17T18:19:54.920Z,11.02
2023-02-17T18:22:23.141Z,11.09
2023-02-17T18:24:51.530Z,10.99
2023-02-17T18:27:19.538Z,11.16
2023-02-17T18:29:47.413Z,11.03
2023-02-17T18:32:15.491Z,11.20
2023-02-17T18:34:43.385Z,10.99
2023-02-17T18:37:12.028Z,10.77
2023-02-17T18:39:40.293Z,10.72
2023-02-17T18:42:08.177Z,10.90
2023-02-17T18:44:36.076Z,10.76
2023-02-17T18:47:04.025Z,10.65
2023-02-17T18:49:31.940Z,10.48
2023-02-17T18:51:59.819Z,10.65
2023-02-17T18:54:27.767Z,10.73
2023-02-17T18:56:57.966Z,10.69
2023-02-17T18:59:25.871Z,10.61
2023-02-17T19:01:53.729Z,10.65
2023-02-17T19:04:21.643Z,10.65
2023-02-17T19:06:49.504Z,10.63
2023-02-17T19:09:17.474Z,10.57
2023-02-17T19:11:45.332Z,10.81
2023-02-17T19:14:13.153Z,10.55
2023-02-17T19:16:41.173Z,10.63
2023-02-17T19:19:09.127Z,10.51
2023-02-17T19:21:37.066Z,10.64
2023-02-17T19:24:05.132Z,10.48
2023-02-17T19:26:34.128Z,10.57
2023-02-17T19:29:02.031Z,10.38
2023-02-17T19:31:30.121Z,10.66
2023-02-17T19:33:58.123Z,10.60
2023-02-17T19:36:26.557Z,10.59
2023-02-17T19:38:57.150Z,10.20
2023-02-17T19:41:25.492Z,10.43
2023-02-17T19:43:53.470Z,10.21
2023-02-17T19:46:24.328Z,10.07
2023-02-17T19:48:52.336Z,10.13
2023-02-17T19:51:21.018Z,10.10
2023-02-17T19:53:48.945Z,10.38
2023-02-17T19:56:25.509Z,9.90
2023-02-17T19:58:54.368Z,10.01
2023-02-17T20:01:27.312Z,10.03
2023-02-17T20:03:59.032Z,9.81
2023-02-17T20:06:38.436Z,9.88
2023-02-17T20:09:15.624Z,9.95
2023-02-17T20:11:44.819Z,9.92
2023-02-17T20:14:12.942Z,9.56
2023-02-17T20:16:41.084Z,9.88
2023-02-17T20:19:09.202Z,9.61
2023-02-17T20:21:38.547Z,9.80
2023-02-17T20:24:06.858Z,9.90
2023-02-17T20:26:43.256Z,9.70
2023-02-17T20:29:13.223Z,9.48
2023-02-17T20:31:42.168Z,9.24
2023-02-17T20:34:35.406Z,9.35
2023-02-17T20:37:04.014Z,9.34
2023-02-17T20:39:32.955Z,9.47
2023-02-17T20:42:01.686Z,9.45
2023-02-17T20:44:29.728Z,9.60
2023-02-17T20:46:58.107Z,9.30
2023-02-17T20:49:27.901Z,9.39
2023-02-17T20:51:56.172Z,9.38
2023-02-17T20:54:25.496Z,9.42
2023-02-17T20:56:53.891Z,9.21
2023-02-17T20:59:21.850Z,9.18
2023-02-17T21:01:49.923Z,9.24
2023-02-17T21:04:18.609Z,9.33
2023-02-17T21:06:47.297Z,9.11
2023-02-17T21:09:20.783Z,9.20
2023-02-17T21:11:48.977Z,8.99
2023-02-17T21:14:16.849Z,9.13
2023-02-17T21:16:45.242Z,8.98
2023-02-17T21:19:13.204Z,9.13
2023-02-17T21:21:41.073Z,9.22
2023-02-17T21:24:09.054Z,9.24
2023-02-17T21:26:37.048Z,9.18
2023-02-17T21:29:05.251Z,9.16
2023-02-17T21:31:33.417Z,8.98
2023-02-17T21:34:01.385Z,9.15
2023-02-17T21:36:29.699Z,9.05
2023-02-17T21:38:58.992Z,8.83
2023-02-17T21:41:28.878Z,9.12
2023-02-17T21:44:15.396Z,8.80
2023-02-17T21:46:44.284Z,8.79
2023-02-17T21:49:13.455Z,8.90
2023-02-17T21:51:42.022Z,8.77
2023-02-17T21:54:10.832Z,9.03
2023-02-17T21:56:38.916Z,8.89
2023-02-17T21:59:07.083Z,8.94
2023-02-17T22:01:35.425Z,9.01
2023-02-17T22:04:03.977Z,8.87
2023-02-17T22:06:40.183Z,8.82
2023-02-17T22:09:12.860Z,8.76
2023-02-17T22:11:42.803Z,8.73
2023-02-17T22:14:20.304Z,8.65
2023-02-17T22:16:49.347Z,8.71
2023-02-17T22:19:23.687Z,8.84
2023-02-17T22:21:52.298Z,8.81
2023-02-17T22:24:21.351Z,8.92
2023-02-17T22:26:50.345Z,8.46
2023-02-17T22:29:18.272Z,8.58
2023-02-17T22:31:47.641Z,8.60
2023-02-17T22:34:15.952Z,8.60
2023-02-17T22:36:43.987Z,8.42
2023-02-17T22:39:12.047Z,8.56
2023-02-17T22:41:41.183Z,8.61
2023-02-17T22:44:09.190Z,8.35
2023-02-17T22:46:37.157Z,8.25
2023-02-17T22:49:05.362Z,8.41
2023-02-17T22:51:39.653Z,8.46
2023-02-17T22:54:08.556Z,8.42
2023-02-17T22:56:36.960Z,8.44
2023-02-17T22:59:05.744Z,8.56
2023-02-17T23:01:38.097Z,8.55
2023-02-17T23:04:06.701Z,8.35
2023-02-17T23:06:38.081Z,8.54
2023-02-17T23:09:11.752Z,8.47
2023-02-17T23:11:50.426Z,8.37
2023-02-17T23:14:32.987Z,8.32
2023-02-17T23:17:09.821Z,8.72
2023-02-17T23:19:38.984Z,8.37
2023-02-17T23:22:15.795Z,8.35
2023-02-17T23:24:46.569Z,8.41
2023-02-17T23:27:14.789Z,8.33
2023-02-17T23:29:43.161Z,7.92
2023-02-17T23:32:11.047Z,8.24
2023-02-17T23:34:39.394Z,8.07
2023-02-17T23:37:07.297Z,8.34
2023-02-17T23:39:38.129Z,8.37
2023-02-17T23:42:06.469Z,8.29
2023-02-17T23:44:34.378Z,8.08
2023-02-17T23:47:03.627Z,8.37
2023-02-17T23:49:31.521Z,8.25
2023-02-17T23:51:59.754Z,8.03
2023-02-17T23:54:28.091Z,8.04
2023-02-17T23:56:55.981Z,8.27
2023-02-17T23:59:23.851Z,8.13
